Weather at Stewart Farms Airport [CLOSED]

Public forecast

Using degrees Fahrenheit for public forecast. Weather courtesy of forecast.io.

Closest aviation weather report (METAR) to Stewart Farms Airport

Closest report is Red Wing Regional Airport, 14.1 nm (26.2 km) ENE. Retrieved 2021/07/28 00:15 UTC (8 minutes ago):

KRGK 280015Z AUTO 00000KT 7SM SCT035 31/23 A2994 RMK AO2

Closest aviation forecast (TAF) to Stewart Farms Airport

Forecast is more than 12 hours old.

Closest forecast is Red Wing Regional Airport, 14.1 nm (26.2 km) ENE. Retrieved 2018/02/05 00:21 UTC (3 years ago):

TAF KRGK 052320Z 0600/0624 27008KT P6SM FEW025 BKN035 FM060200 30007KT P6SM FEW200 FM061100 VRB03KT P6SM FEW250 FM062000 23004KT P6SM BKN250 AMD NOT SKED